sensor_id;sensor_type;location;lat;lon;timestamp;P1;durP1;ratioP1;P2;durP2;ratioP2
7110;SDS011;3597;42.650;23.386;2022-07-01T00:00:19;4.97;;;4.87;;
7110;SDS011;3597;42.650;23.386;2022-07-01T00:02:45;4.47;;;4.47;;
7110;SDS011;3597;42.650;23.386;2022-07-01T00:05:10;4.97;;;4.87;;
7110;SDS011;3597;42.650;23.386;2022-07-01T00:07:36;4.67;;;4.67;;
7110;SDS011;3597;42.650;23.386;2022-07-01T00:10:02;4.33;;;4.33;;
7110;SDS011;3597;42.650;23.386;2022-07-01T00:12:28;4.87;;;4.87;;
7110;SDS011;3597;42.650;23.386;2022-07-01T00:14:54;4.63;;;4.53;;
7110;SDS011;3597;42.650;23.386;2022-07-01T00:17:20;4.37;;;4.37;;
7110;SDS011;3597;42.650;23.386;2022-07-01T00:19:45;3.80;;;3.80;;
7110;SDS011;3597;42.650;23.386;2022-07-01T00:22:10;3.77;;;3.77;;
7110;SDS011;3597;42.650;23.386;2022-07-01T00:24:36;4.00;;;4.00;;
7110;SDS011;3597;42.650;23.386;2022-07-01T00:27:01;3.97;;;3.97;;
7110;SDS011;3597;42.650;23.386;2022-07-01T00:29:27;3.60;;;3.60;;
7110;SDS011;3597;42.650;23.386;2022-07-01T00:31:52;4.00;;;3.80;;
7110;SDS011;3597;42.650;23.386;2022-07-01T00:34:18;3.40;;;3.40;;
7110;SDS011;3597;42.650;23.386;2022-07-01T00:36:43;3.37;;;3.37;;
7110;SDS011;3597;42.650;23.386;2022-07-01T00:39:08;3.07;;;3.07;;
7110;SDS011;3597;42.650;23.386;2022-07-01T00:41:34;2.80;;;2.80;;
7110;SDS011;3597;42.650;23.386;2022-07-01T00:43:59;2.87;;;2.87;;
7110;SDS011;3597;42.650;23.386;2022-07-01T00:46:25;2.67;;;2.67;;
7110;SDS011;3597;42.650;23.386;2022-07-01T00:48:51;2.80;;;2.80;;
7110;SDS011;3597;42.650;23.386;2022-07-01T00:51:20;2.60;;;2.60;;
7110;SDS011;3597;42.650;23.386;2022-07-01T00:53:46;2.90;;;2.90;;
7110;SDS011;3597;42.650;23.386;2022-07-01T00:56:11;2.57;;;2.57;;
7110;SDS011;3597;42.650;23.386;2022-07-01T00:58:37;2.93;;;2.93;;
7110;SDS011;3597;42.650;23.386;2022-07-01T01:01:03;3.10;;;3.10;;
7110;SDS011;3597;42.650;23.386;2022-07-01T01:03:28;3.40;;;3.30;;
7110;SDS011;3597;42.650;23.386;2022-07-01T01:05:55;3.40;;;3.40;;
7110;SDS011;3597;42.650;23.386;2022-07-01T01:08:22;3.03;;;3.03;;
7110;SDS011;3597;42.650;23.386;2022-07-01T01:10:48;3.33;;;3.33;;
7110;SDS011;3597;42.650;23.386;2022-07-01T01:13:13;2.73;;;2.73;;
7110;SDS011;3597;42.650;23.386;2022-07-01T01:15:39;3.43;;;3.33;;
7110;SDS011;3597;42.650;23.386;2022-07-01T01:18:04;2.93;;;2.93;;
7110;SDS011;3597;42.650;23.386;2022-07-01T01:20:36;3.00;;;3.00;;
7110;SDS011;3597;42.650;23.386;2022-07-01T01:23:02;2.93;;;2.93;;
7110;SDS011;3597;42.650;23.386;2022-07-01T01:25:30;2.13;;;2.13;;
7110;SDS011;3597;42.650;23.386;2022-07-01T01:27:58;2.70;;;2.70;;
7110;SDS011;3597;42.650;23.386;2022-07-01T01:30:24;2.80;;;2.80;;
7110;SDS011;3597;42.650;23.386;2022-07-01T01:32:49;2.67;;;2.67;;
7110;SDS011;3597;42.650;23.386;2022-07-01T01:35:15;2.70;;;2.60;;
7110;SDS011;3597;42.650;23.386;2022-07-01T01:37:40;2.60;;;2.60;;
7110;SDS011;3597;42.650;23.386;2022-07-01T01:40:06;2.50;;;2.50;;
7110;SDS011;3597;42.650;23.386;2022-07-01T01:42:32;2.43;;;2.43;;
7110;SDS011;3597;42.650;23.386;2022-07-01T01:44:58;2.30;;;2.30;;
7110;SDS011;3597;42.650;23.386;2022-07-01T01:47:23;2.43;;;2.43;;
7110;SDS011;3597;42.650;23.386;2022-07-01T01:49:49;2.10;;;2.10;;
7110;SDS011;3597;42.650;23.386;2022-07-01T01:52:14;2.30;;;2.30;;
7110;SDS011;3597;42.650;23.386;2022-07-01T01:54:39;2.10;;;2.10;;
7110;SDS011;3597;42.650;23.386;2022-07-01T01:57:05;2.20;;;2.20;;
7110;SDS011;3597;42.650;23.386;2022-07-01T01:59:31;2.70;;;2.70;;
7110;SDS011;3597;42.650;23.386;2022-07-01T02:01:56;2.47;;;2.47;;
7110;SDS011;3597;42.650;23.386;2022-07-01T02:04:22;2.33;;;2.33;;
7110;SDS011;3597;42.650;23.386;2022-07-01T02:06:50;2.60;;;2.60;;
7110;SDS011;3597;42.650;23.386;2022-07-01T02:09:17;2.47;;;2.47;;
7110;SDS011;3597;42.650;23.386;2022-07-01T02:11:42;2.37;;;2.37;;
7110;SDS011;3597;42.650;23.386;2022-07-01T02:14:07;2.50;;;2.40;;
7110;SDS011;3597;42.650;23.386;2022-07-01T02:16:33;2.47;;;2.47;;
7110;SDS011;3597;42.650;23.386;2022-07-01T02:18:58;2.53;;;2.53;;
7110;SDS011;3597;42.650;23.386;2022-07-01T02:21:23;2.20;;;2.20;;
7110;SDS011;3597;42.650;23.386;2022-07-01T02:23:49;2.30;;;2.30;;
7110;SDS011;3597;42.650;23.386;2022-07-01T02:26:16;2.27;;;2.27;;
7110;SDS011;3597;42.650;23.386;2022-07-01T02:28:42;2.63;;;2.63;;
7110;SDS011;3597;42.650;23.386;2022-07-01T02:31:07;2.30;;;2.30;;
7110;SDS011;3597;42.650;23.386;2022-07-01T02:33:33;2.80;;;2.80;;
7110;SDS011;3597;42.650;23.386;2022-07-01T02:35:58;2.50;;;2.40;;
7110;SDS011;3597;42.650;23.386;2022-07-01T02:38:24;2.53;;;2.53;;
7110;SDS011;3597;42.650;23.386;2022-07-01T02:40:49;2.67;;;2.67;;
7110;SDS011;3597;42.650;23.386;2022-07-01T02:43:14;2.53;;;2.53;;
7110;SDS011;3597;42.650;23.386;2022-07-01T02:45:41;3.00;;;3.00;;
7110;SDS011;3597;42.650;23.386;2022-07-01T02:48:07;2.67;;;2.67;;
7110;SDS011;3597;42.650;23.386;2022-07-01T02:50:32;3.10;;;3.10;;
7110;SDS011;3597;42.650;23.386;2022-07-01T02:52:57;2.43;;;2.43;;
7110;SDS011;3597;42.650;23.386;2022-07-01T02:55:23;2.80;;;2.80;;
7110;SDS011;3597;42.650;23.386;2022-07-01T02:57:48;2.77;;;2.77;;
7110;SDS011;3597;42.650;23.386;2022-07-01T03:00:17;2.90;;;2.90;;
7110;SDS011;3597;42.650;23.386;2022-07-01T03:02:44;2.60;;;2.60;;
7110;SDS011;3597;42.650;23.386;2022-07-01T03:05:10;2.73;;;2.73;;
7110;SDS011;3597;42.650;23.386;2022-07-01T03:07:36;2.73;;;2.73;;
7110;SDS011;3597;42.650;23.386;2022-07-01T03:10:03;2.97;;;2.87;;
7110;SDS011;3597;42.650;23.386;2022-07-01T03:12:29;3.20;;;3.20;;
7110;SDS011;3597;42.650;23.386;2022-07-01T03:17:24;3.43;;;3.43;;
7110;SDS011;3597;42.650;23.386;2022-07-01T03:19:50;3.50;;;3.40;;
7110;SDS011;3597;42.650;23.386;2022-07-01T03:22:19;3.07;;;3.07;;
7110;SDS011;3597;42.650;23.386;2022-07-01T03:24:45;3.23;;;3.23;;
7110;SDS011;3597;42.650;23.386;2022-07-01T03:27:11;3.17;;;3.13;;
7110;SDS011;3597;42.650;23.386;2022-07-01T03:29:37;3.33;;;3.33;;
7110;SDS011;3597;42.650;23.386;2022-07-01T03:32:02;3.77;;;3.77;;
7110;SDS011;3597;42.650;23.386;2022-07-01T03:34:28;3.53;;;3.53;;
7110;SDS011;3597;42.650;23.386;2022-07-01T03:36:53;3.67;;;3.67;;
7110;SDS011;3597;42.650;23.386;2022-07-01T03:39:19;3.67;;;3.57;;
7110;SDS011;3597;42.650;23.386;2022-07-01T03:41:44;3.60;;;3.60;;
7110;SDS011;3597;42.650;23.386;2022-07-01T03:44:10;2.90;;;2.90;;
7110;SDS011;3597;42.650;23.386;2022-07-01T03:46:35;3.40;;;3.40;;
7110;SDS011;3597;42.650;23.386;2022-07-01T03:49:02;3.33;;;3.23;;
7110;SDS011;3597;42.650;23.386;2022-07-01T03:51:29;3.20;;;3.20;;
7110;SDS011;3597;42.650;23.386;2022-07-01T03:53:54;4.10;;;4.10;;
7110;SDS011;3597;42.650;23.386;2022-07-01T03:56:38;3.60;;;3.60;;
7110;SDS011;3597;42.650;23.386;2022-07-01T03:59:03;3.97;;;3.97;;
7110;SDS011;3597;42.650;23.386;2022-07-01T04:01:28;4.20;;;4.13;;
7110;SDS011;3597;42.650;23.386;2022-07-01T04:03:54;3.47;;;3.47;;
7110;SDS011;3597;42.650;23.386;2022-07-01T04:06:20;3.27;;;3.27;;
7110;SDS011;3597;42.650;23.386;2022-07-01T04:08:46;3.40;;;3.40;;
7110;SDS011;3597;42.650;23.386;2022-07-01T04:11:12;3.03;;;2.93;;
7110;SDS011;3597;42.650;23.386;2022-07-01T04:13:37;3.50;;;3.30;;
7110;SDS011;3597;42.650;23.386;2022-07-01T04:16:03;3.17;;;3.17;;
7110;SDS011;3597;42.650;23.386;2022-07-01T04:18:29;3.70;;;3.60;;
7110;SDS011;3597;42.650;23.386;2022-07-01T04:20:54;2.83;;;2.83;;
7110;SDS011;3597;42.650;23.386;2022-07-01T04:23:39;3.00;;;2.90;;
7110;SDS011;3597;42.650;23.386;2022-07-01T04:26:04;2.80;;;2.80;;
7110;SDS011;3597;42.650;23.386;2022-07-01T04:28:29;2.90;;;2.90;;
7110;SDS011;3597;42.650;23.386;2022-07-01T04:30:55;2.87;;;2.87;;
7110;SDS011;3597;42.650;23.386;2022-07-01T04:33:20;3.70;;;3.70;;
7110;SDS011;3597;42.650;23.386;2022-07-01T04:35:45;3.47;;;3.47;;
7110;SDS011;3597;42.650;23.386;2022-07-01T04:38:11;3.03;;;3.03;;
7110;SDS011;3597;42.650;23.386;2022-07-01T04:40:36;3.20;;;3.20;;
7110;SDS011;3597;42.650;23.386;2022-07-01T04:43:02;2.60;;;2.60;;
7110;SDS011;3597;42.650;23.386;2022-07-01T04:45:27;1.90;;;1.90;;
7110;SDS011;3597;42.650;23.386;2022-07-01T04:47:52;2.97;;;2.77;;
7110;SDS011;3597;42.650;23.386;2022-07-01T04:50:18;4.23;;;4.23;;
7110;SDS011;3597;42.650;23.386;2022-07-01T04:52:43;4.80;;;4.60;;
7110;SDS011;3597;42.650;23.386;2022-07-01T04:55:08;2.30;;;2.30;;
7110;SDS011;3597;42.650;23.386;2022-07-01T04:57:34;2.05;;;2.05;;
7110;SDS011;3597;42.650;23.386;2022-07-01T04:59:59;4.03;;;4.03;;
7110;SDS011;3597;42.650;23.386;2022-07-01T05:02:25;2.05;;;2.05;;
7110;SDS011;3597;42.650;23.386;2022-07-01T05:04:50;2.45;;;2.45;;
7110;SDS011;3597;42.650;23.386;2022-07-01T05:07:16;2.42;;;2.42;;
7110;SDS011;3597;42.650;23.386;2022-07-01T05:09:56;2.80;;;2.80;;
7110;SDS011;3597;42.650;23.386;2022-07-01T05:12:23;2.42;;;2.42;;
7110;SDS011;3597;42.650;23.386;2022-07-01T05:14:50;2.70;;;2.70;;
7110;SDS011;3597;42.650;23.386;2022-07-01T05:17:15;2.90;;;2.90;;
7110;SDS011;3597;42.650;23.386;2022-07-01T05:19:41;2.47;;;2.47;;
7110;SDS011;3597;42.650;23.386;2022-07-01T05:22:24;3.15;;;3.15;;
7110;SDS011;3597;42.650;23.386;2022-07-01T05:24:50;4.60;;;4.60;;
7110;SDS011;3597;42.650;23.386;2022-07-01T05:27:15;5.28;;;5.18;;
7110;SDS011;3597;42.650;23.386;2022-07-01T05:29:41;6.13;;;6.03;;
7110;SDS011;3597;42.650;23.386;2022-07-01T05:32:06;8.30;;;8.18;;
7110;SDS011;3597;42.650;23.386;2022-07-01T05:34:32;7.78;;;7.47;;
7110;SDS011;3597;42.650;23.386;2022-07-01T05:36:57;7.43;;;7.22;;
7110;SDS011;3597;42.650;23.386;2022-07-01T05:39:23;5.85;;;5.75;;
7110;SDS011;3597;42.650;23.386;2022-07-01T05:41:48;4.82;;;4.82;;
7110;SDS011;3597;42.650;23.386;2022-07-01T05:44:14;5.13;;;5.03;;
7110;SDS011;3597;42.650;23.386;2022-07-01T05:46:39;3.70;;;3.70;;
7110;SDS011;3597;42.650;23.386;2022-07-01T05:49:05;3.90;;;3.80;;
7110;SDS011;3597;42.650;23.386;2022-07-01T05:51:30;5.10;;;5.00;;
7110;SDS011;3597;42.650;23.386;2022-07-01T05:53:56;4.30;;;4.30;;
7110;SDS011;3597;42.650;23.386;2022-07-01T05:56:21;4.82;;;4.82;;
7110;SDS011;3597;42.650;23.386;2022-07-01T05:58:47;3.22;;;3.22;;
7110;SDS011;3597;42.650;23.386;2022-07-01T06:01:13;2.08;;;1.98;;
7110;SDS011;3597;42.650;23.386;2022-07-01T06:03:38;2.00;;;2.00;;
7110;SDS011;3597;42.650;23.386;2022-07-01T06:06:04;2.47;;;2.42;;
7110;SDS011;3597;42.650;23.386;2022-07-01T06:08:29;1.70;;;1.70;;
7110;SDS011;3597;42.650;23.386;2022-07-01T06:10:55;1.63;;;1.63;;
7110;SDS011;3597;42.650;23.386;2022-07-01T06:13:20;1.50;;;1.50;;
7110;SDS011;3597;42.650;23.386;2022-07-01T06:15:46;1.73;;;1.73;;
7110;SDS011;3597;42.650;23.386;2022-07-01T06:18:11;1.50;;;1.50;;
7110;SDS011;3597;42.650;23.386;2022-07-01T06:20:37;1.88;;;1.88;;
7110;SDS011;3597;42.650;23.386;2022-07-01T06:23:02;1.80;;;1.80;;
7110;SDS011;3597;42.650;23.386;2022-07-01T06:25:27;1.70;;;1.70;;
7110;SDS011;3597;42.650;23.386;2022-07-01T06:27:53;1.90;;;1.80;;
7110;SDS011;3597;42.650;23.386;2022-07-01T06:30:18;1.67;;;1.67;;
7110;SDS011;3597;42.650;23.386;2022-07-01T06:32:43;2.03;;;2.03;;
7110;SDS011;3597;42.650;23.386;2022-07-01T06:35:09;2.35;;;2.35;;
7110;SDS011;3597;42.650;23.386;2022-07-01T06:37:34;2.15;;;2.15;;
7110;SDS011;3597;42.650;23.386;2022-07-01T06:40:02;2.22;;;2.10;;
7110;SDS011;3597;42.650;23.386;2022-07-01T06:42:28;1.90;;;1.90;;
7110;SDS011;3597;42.650;23.386;2022-07-01T06:44:53;2.10;;;2.10;;
7110;SDS011;3597;42.650;23.386;2022-07-01T06:47:18;2.08;;;2.08;;
7110;SDS011;3597;42.650;23.386;2022-07-01T06:49:44;2.28;;;2.28;;
7110;SDS011;3597;42.650;23.386;2022-07-01T06:52:09;1.73;;;1.73;;
7110;SDS011;3597;42.650;23.386;2022-07-01T06:54:35;2.15;;;2.15;;
7110;SDS011;3597;42.650;23.386;2022-07-01T06:57:03;1.95;;;1.95;;
7110;SDS011;3597;42.650;23.386;2022-07-01T06:59:29;1.85;;;1.85;;
7110;SDS011;3597;42.650;23.386;2022-07-01T07:01:54;2.00;;;2.00;;
7110;SDS011;3597;42.650;23.386;2022-07-01T07:04:19;2.00;;;2.00;;
7110;SDS011;3597;42.650;23.386;2022-07-01T07:06:45;1.85;;;1.85;;
7110;SDS011;3597;42.650;23.386;2022-07-01T07:09:10;2.67;;;2.58;;
7110;SDS011;3597;42.650;23.386;2022-07-01T07:11:36;2.22;;;2.20;;
7110;SDS011;3597;42.650;23.386;2022-07-01T07:14:01;1.83;;;1.83;;
7110;SDS011;3597;42.650;23.386;2022-07-01T07:16:26;2.03;;;2.03;;
7110;SDS011;3597;42.650;23.386;2022-07-01T07:18:52;2.22;;;2.22;;
7110;SDS011;3597;42.650;23.386;2022-07-01T07:21:18;3.13;;;3.03;;
7110;SDS011;3597;42.650;23.386;2022-07-01T07:23:43;4.20;;;4.13;;
7110;SDS011;3597;42.650;23.386;2022-07-01T07:26:09;4.25;;;4.20;;
7110;SDS011;3597;42.650;23.386;2022-07-01T07:28:34;3.92;;;3.85;;
7110;SDS011;3597;42.650;23.386;2022-07-01T07:31:00;3.50;;;3.50;;
7110;SDS011;3597;42.650;23.386;2022-07-01T07:33:25;3.05;;;3.05;;
7110;SDS011;3597;42.650;23.386;2022-07-01T07:35:51;3.10;;;3.10;;
7110;SDS011;3597;42.650;23.386;2022-07-01T07:38:17;3.55;;;3.45;;
7110;SDS011;3597;42.650;23.386;2022-07-01T07:40:42;3.40;;;3.38;;
7110;SDS011;3597;42.650;23.386;2022-07-01T07:43:08;3.72;;;3.65;;
7110;SDS011;3597;42.650;23.386;2022-07-01T07:45:33;3.13;;;3.10;;
7110;SDS011;3597;42.650;23.386;2022-07-01T07:47:59;3.88;;;3.72;;
7110;SDS011;3597;42.650;23.386;2022-07-01T07:50:26;4.15;;;4.05;;
7110;SDS011;3597;42.650;23.386;2022-07-01T07:52:51;3.83;;;3.78;;
7110;SDS011;3597;42.650;23.386;2022-07-01T07:55:17;3.70;;;3.70;;
7110;SDS011;3597;42.650;23.386;2022-07-01T07:57:42;4.30;;;4.20;;
7110;SDS011;3597;42.650;23.386;2022-07-01T08:00:08;3.38;;;3.38;;
7110;SDS011;3597;42.650;23.386;2022-07-01T08:02:35;3.17;;;3.17;;
7110;SDS011;3597;42.650;23.386;2022-07-01T08:05:01;3.10;;;3.10;;
7110;SDS011;3597;42.650;23.386;2022-07-01T08:07:26;2.83;;;2.83;;
7110;SDS011;3597;42.650;23.386;2022-07-01T08:09:52;3.20;;;3.20;;
7110;SDS011;3597;42.650;23.386;2022-07-01T08:12:17;3.05;;;3.00;;
7110;SDS011;3597;42.650;23.386;2022-07-01T08:14:43;3.15;;;3.15;;
7110;SDS011;3597;42.650;23.386;2022-07-01T08:17:08;2.92;;;2.92;;
7110;SDS011;3597;42.650;23.386;2022-07-01T08:19:34;2.78;;;2.78;;
7110;SDS011;3597;42.650;23.386;2022-07-01T08:21:59;3.38;;;3.28;;
7110;SDS011;3597;42.650;23.386;2022-07-01T08:24:25;2.97;;;2.88;;
7110;SDS011;3597;42.650;23.386;2022-07-01T08:26:50;3.40;;;3.20;;
7110;SDS011;3597;42.650;23.386;2022-07-01T08:29:16;3.33;;;3.20;;
7110;SDS011;3597;42.650;23.386;2022-07-01T08:31:41;3.28;;;3.20;;
7110;SDS011;3597;42.650;23.386;2022-07-01T08:34:07;3.10;;;3.10;;
7110;SDS011;3597;42.650;23.386;2022-07-01T08:36:34;3.40;;;3.40;;
7110;SDS011;3597;42.650;23.386;2022-07-01T08:38:59;2.75;;;2.75;;
7110;SDS011;3597;42.650;23.386;2022-07-01T08:41:25;2.90;;;2.90;;
7110;SDS011;3597;42.650;23.386;2022-07-01T08:43:50;2.60;;;2.60;;
7110;SDS011;3597;42.650;23.386;2022-07-01T08:46:15;2.83;;;2.83;;
7110;SDS011;3597;42.650;23.386;2022-07-01T08:48:44;2.78;;;2.78;;
7110;SDS011;3597;42.650;23.386;2022-07-01T08:51:10;2.90;;;2.80;;
7110;SDS011;3597;42.650;23.386;2022-07-01T08:53:35;2.90;;;2.90;;
7110;SDS011;3597;42.650;23.386;2022-07-01T08:56:01;2.63;;;2.63;;
7110;SDS011;3597;42.650;23.386;2022-07-01T08:58:47;2.80;;;2.80;;
7110;SDS011;3597;42.650;23.386;2022-07-01T09:03:39;2.80;;;2.80;;
7110;SDS011;3597;42.650;23.386;2022-07-01T09:06:04;2.65;;;2.65;;
7110;SDS011;3597;42.650;23.386;2022-07-01T09:08:40;2.60;;;2.60;;
7110;SDS011;3597;42.650;23.386;2022-07-01T09:11:17;3.15;;;3.05;;
7110;SDS011;3597;42.650;23.386;2022-07-01T09:13:44;2.67;;;2.67;;
7110;SDS011;3597;42.650;23.386;2022-07-01T09:16:11;2.25;;;2.25;;
7110;SDS011;3597;42.650;23.386;2022-07-01T09:18:37;2.28;;;2.28;;
7110;SDS011;3597;42.650;23.386;2022-07-01T09:21:05;2.78;;;2.78;;
7110;SDS011;3597;42.650;23.386;2022-07-01T09:23:32;2.35;;;2.35;;
7110;SDS011;3597;42.650;23.386;2022-07-01T09:25:58;2.67;;;2.67;;
7110;SDS011;3597;42.650;23.386;2022-07-01T09:28:24;2.70;;;2.70;;
7110;SDS011;3597;42.650;23.386;2022-07-01T09:30:52;2.95;;;2.95;;
7110;SDS011;3597;42.650;23.386;2022-07-01T09:33:19;3.25;;;3.22;;
7110;SDS011;3597;42.650;23.386;2022-07-01T09:35:49;3.50;;;3.40;;
7110;SDS011;3597;42.650;23.386;2022-07-01T09:38:15;3.30;;;3.30;;
7110;SDS011;3597;42.650;23.386;2022-07-01T09:40:55;2.97;;;2.97;;
7110;SDS011;3597;42.650;23.386;2022-07-01T09:43:25;2.97;;;2.97;;
7110;SDS011;3597;42.650;23.386;2022-07-01T09:48:18;3.17;;;3.08;;
7110;SDS011;3597;42.650;23.386;2022-07-01T09:50:44;4.20;;;4.20;;
7110;SDS011;3597;42.650;23.386;2022-07-01T09:53:10;4.47;;;4.40;;
7110;SDS011;3597;42.650;23.386;2022-07-01T09:55:37;4.30;;;4.20;;
7110;SDS011;3597;42.650;23.386;2022-07-01T09:58:04;4.68;;;4.57;;
7110;SDS011;3597;42.650;23.386;2022-07-01T10:00:30;4.85;;;4.78;;
7110;SDS011;3597;42.650;23.386;2022-07-01T10:02:57;4.60;;;4.60;;
7110;SDS011;3597;42.650;23.386;2022-07-01T10:05:22;4.20;;;4.20;;
7110;SDS011;3597;42.650;23.386;2022-07-01T10:07:57;5.20;;;5.10;;
7110;SDS011;3597;42.650;23.386;2022-07-01T10:13:11;4.75;;;4.65;;
7110;SDS011;3597;42.650;23.386;2022-07-01T10:15:40;5.05;;;5.05;;
7110;SDS011;3597;42.650;23.386;2022-07-01T10:18:06;5.00;;;4.90;;
7110;SDS011;3597;42.650;23.386;2022-07-01T10:20:45;4.28;;;4.28;;
7110;SDS011;3597;42.650;23.386;2022-07-01T10:23:11;3.30;;;3.30;;
7110;SDS011;3597;42.650;23.386;2022-07-01T10:31:12;3.40;;;3.40;;
7110;SDS011;3597;42.650;23.386;2022-07-01T10:36:15;4.13;;;4.13;;
7110;SDS011;3597;42.650;23.386;2022-07-01T10:39:27;4.18;;;3.97;;
7110;SDS011;3597;42.650;23.386;2022-07-01T10:42:01;3.72;;;3.70;;
7110;SDS011;3597;42.650;23.386;2022-07-01T10:44:26;3.17;;;3.17;;
7110;SDS011;3597;42.650;23.386;2022-07-01T10:52:02;4.25;;;4.15;;
7110;SDS011;3597;42.650;23.386;2022-07-01T11:02:17;2.00;;;2.00;;
7110;SDS011;3597;42.650;23.386;2022-07-01T11:04:47;1.90;;;1.90;;
7110;SDS011;3597;42.650;23.386;2022-07-01T11:07:14;2.10;;;2.10;;
7110;SDS011;3597;42.650;23.386;2022-07-01T11:09:39;1.90;;;1.90;;
7110;SDS011;3597;42.650;23.386;2022-07-01T11:12:05;2.00;;;2.00;;
7110;SDS011;3597;42.650;23.386;2022-07-01T11:14:35;1.90;;;1.90;;
7110;SDS011;3597;42.650;23.386;2022-07-01T11:17:04;1.65;;;1.65;;
7110;SDS011;3597;42.650;23.386;2022-07-01T11:19:30;1.70;;;1.70;;
7110;SDS011;3597;42.650;23.386;2022-07-01T11:21:56;1.90;;;1.90;;
7110;SDS011;3597;42.650;23.386;2022-07-01T11:24:22;1.83;;;1.83;;
7110;SDS011;3597;42.650;23.386;2022-07-01T11:26:48;2.25;;;2.25;;
7110;SDS011;3597;42.650;23.386;2022-07-01T11:29:13;1.98;;;1.98;;
7110;SDS011;3597;42.650;23.386;2022-07-01T11:31:39;2.40;;;2.40;;
7110;SDS011;3597;42.650;23.386;2022-07-01T11:34:05;2.10;;;2.10;;
7110;SDS011;3597;42.650;23.386;2022-07-01T11:36:31;2.10;;;2.10;;
7110;SDS011;3597;42.650;23.386;2022-07-01T11:39:17;2.03;;;2.03;;
7110;SDS011;3597;42.650;23.386;2022-07-01T11:41:58;2.05;;;2.05;;
7110;SDS011;3597;42.650;23.386;2022-07-01T11:44:31;1.63;;;1.63;;
7110;SDS011;3597;42.650;23.386;2022-07-01T11:46:59;1.52;;;1.52;;
7110;SDS011;3597;42.650;23.386;2022-07-01T11:49:25;1.60;;;1.60;;
7110;SDS011;3597;42.650;23.386;2022-07-01T11:51:55;1.70;;;1.70;;
7110;SDS011;3597;42.650;23.386;2022-07-01T11:54:20;1.70;;;1.70;;
7110;SDS011;3597;42.650;23.386;2022-07-01T11:56:46;1.55;;;1.55;;
7110;SDS011;3597;42.650;23.386;2022-07-01T11:59:12;1.55;;;1.55;;
7110;SDS011;3597;42.650;23.386;2022-07-01T12:01:37;1.52;;;1.52;;
7110;SDS011;3597;42.650;23.386;2022-07-01T12:04:05;1.52;;;1.52;;
7110;SDS011;3597;42.650;23.386;2022-07-01T12:06:33;1.60;;;1.60;;
7110;SDS011;3597;42.650;23.386;2022-07-01T12:08:58;1.55;;;1.55;;
7110;SDS011;3597;42.650;23.386;2022-07-01T12:11:25;1.75;;;1.75;;
7110;SDS011;3597;42.650;23.386;2022-07-01T12:13:52;1.58;;;1.58;;
7110;SDS011;3597;42.650;23.386;2022-07-01T12:16:17;1.50;;;1.50;;
7110;SDS011;3597;42.650;23.386;2022-07-01T12:18:56;1.50;;;1.50;;
7110;SDS011;3597;42.650;23.386;2022-07-01T12:21:26;1.95;;;1.95;;
7110;SDS011;3597;42.650;23.386;2022-07-01T12:26:33;2.22;;;2.22;;
7110;SDS011;3597;42.650;23.386;2022-07-01T12:28:59;2.10;;;2.10;;
7110;SDS011;3597;42.650;23.386;2022-07-01T12:31:24;2.13;;;2.13;;
7110;SDS011;3597;42.650;23.386;2022-07-01T12:33:50;2.03;;;1.92;;
7110;SDS011;3597;42.650;23.386;2022-07-01T12:36:17;2.00;;;2.00;;
7110;SDS011;3597;42.650;23.386;2022-07-01T12:38:43;2.03;;;2.03;;
7110;SDS011;3597;42.650;23.386;2022-07-01T12:43:58;2.40;;;2.40;;
7110;SDS011;3597;42.650;23.386;2022-07-01T12:46:28;2.45;;;2.45;;
7110;SDS011;3597;42.650;23.386;2022-07-01T12:48:55;2.10;;;2.00;;
7110;SDS011;3597;42.650;23.386;2022-07-01T12:51:21;2.22;;;2.22;;
7110;SDS011;3597;42.650;23.386;2022-07-01T12:53:46;3.05;;;3.05;;
7110;SDS011;3597;42.650;23.386;2022-07-01T12:56:22;3.30;;;3.20;;
7110;SDS011;3597;42.650;23.386;2022-07-01T12:58:48;2.58;;;2.58;;
7110;SDS011;3597;42.650;23.386;2022-07-01T13:01:14;2.40;;;2.40;;
7110;SDS011;3597;42.650;23.386;2022-07-01T13:03:40;2.65;;;2.65;;
7110;SDS011;3597;42.650;23.386;2022-07-01T13:06:05;2.40;;;2.40;;
7110;SDS011;3597;42.650;23.386;2022-07-01T13:08:31;2.40;;;2.40;;
7110;SDS011;3597;42.650;23.386;2022-07-01T13:10:57;2.58;;;2.58;;
7110;SDS011;3597;42.650;23.386;2022-07-01T13:13:22;2.50;;;2.50;;
7110;SDS011;3597;42.650;23.386;2022-07-01T13:15:48;2.35;;;2.35;;
7110;SDS011;3597;42.650;23.386;2022-07-01T13:18:13;2.72;;;2.72;;
7110;SDS011;3597;42.650;23.386;2022-07-01T13:20:39;3.00;;;3.00;;
7110;SDS011;3597;42.650;23.386;2022-07-01T13:23:05;3.00;;;3.00;;
7110;SDS011;3597;42.650;23.386;2022-07-01T13:25:31;3.00;;;3.00;;
7110;SDS011;3597;42.650;23.386;2022-07-01T13:27:56;2.95;;;2.95;;
7110;SDS011;3597;42.650;23.386;2022-07-01T13:30:22;3.17;;;2.97;;
7110;SDS011;3597;42.650;23.386;2022-07-01T13:32:48;2.70;;;2.70;;
7110;SDS011;3597;42.650;23.386;2022-07-01T13:35:17;2.90;;;2.90;;
7110;SDS011;3597;42.650;23.386;2022-07-01T13:37:43;2.38;;;2.38;;
7110;SDS011;3597;42.650;23.386;2022-07-01T13:40:08;2.15;;;2.15;;
7110;SDS011;3597;42.650;23.386;2022-07-01T13:42:35;2.17;;;2.17;;
7110;SDS011;3597;42.650;23.386;2022-07-01T13:45:00;1.90;;;1.90;;
7110;SDS011;3597;42.650;23.386;2022-07-01T13:47:26;2.42;;;2.42;;
7110;SDS011;3597;42.650;23.386;2022-07-01T13:49:51;2.13;;;2.13;;
7110;SDS011;3597;42.650;23.386;2022-07-01T13:52:17;2.20;;;2.20;;
7110;SDS011;3597;42.650;23.386;2022-07-01T13:54:42;2.13;;;2.13;;
7110;SDS011;3597;42.650;23.386;2022-07-01T13:57:07;2.42;;;2.42;;
7110;SDS011;3597;42.650;23.386;2022-07-01T13:59:33;2.30;;;2.30;;
7110;SDS011;3597;42.650;23.386;2022-07-01T14:01:59;2.40;;;2.40;;
7110;SDS011;3597;42.650;23.386;2022-07-01T14:04:24;2.72;;;2.72;;
7110;SDS011;3597;42.650;23.386;2022-07-01T14:06:50;2.47;;;2.47;;
7110;SDS011;3597;42.650;23.386;2022-07-01T14:09:15;2.30;;;2.30;;
7110;SDS011;3597;42.650;23.386;2022-07-01T14:11:41;2.40;;;2.40;;
7110;SDS011;3597;42.650;23.386;2022-07-01T14:14:06;2.45;;;2.35;;
7110;SDS011;3597;42.650;23.386;2022-07-01T14:16:32;2.55;;;2.55;;
7110;SDS011;3597;42.650;23.386;2022-07-01T14:18:57;2.67;;;2.67;;
7110;SDS011;3597;42.650;23.386;2022-07-01T14:21:23;2.28;;;2.28;;
7110;SDS011;3597;42.650;23.386;2022-07-01T14:23:48;2.35;;;2.35;;
7110;SDS011;3597;42.650;23.386;2022-07-01T14:26:14;2.40;;;2.40;;
7110;SDS011;3597;42.650;23.386;2022-07-01T14:28:39;2.50;;;2.40;;
7110;SDS011;3597;42.650;23.386;2022-07-01T14:31:06;2.70;;;2.50;;
7110;SDS011;3597;42.650;23.386;2022-07-01T14:33:31;2.50;;;2.50;;
7110;SDS011;3597;42.650;23.386;2022-07-01T14:35:57;2.40;;;2.40;;
7110;SDS011;3597;42.650;23.386;2022-07-01T14:38:22;2.20;;;2.20;;
7110;SDS011;3597;42.650;23.386;2022-07-01T14:40:47;2.67;;;2.60;;
7110;SDS011;3597;42.650;23.386;2022-07-01T14:43:13;2.90;;;2.90;;
7110;SDS011;3597;42.650;23.386;2022-07-01T14:45:38;2.13;;;2.13;;
7110;SDS011;3597;42.650;23.386;2022-07-01T14:48:04;2.00;;;2.00;;
7110;SDS011;3597;42.650;23.386;2022-07-01T14:50:29;2.13;;;2.13;;
7110;SDS011;3597;42.650;23.386;2022-07-01T14:52:55;1.90;;;1.90;;
7110;SDS011;3597;42.650;23.386;2022-07-01T14:55:20;2.05;;;2.05;;
7110;SDS011;3597;42.650;23.386;2022-07-01T14:57:46;1.70;;;1.70;;
7110;SDS011;3597;42.650;23.386;2022-07-01T15:00:11;1.92;;;1.92;;
7110;SDS011;3597;42.650;23.386;2022-07-01T15:02:37;1.90;;;1.90;;
7110;SDS011;3597;42.650;23.386;2022-07-01T15:05:03;2.10;;;2.10;;
7110;SDS011;3597;42.650;23.386;2022-07-01T15:07:29;2.00;;;2.00;;
7110;SDS011;3597;42.650;23.386;2022-07-01T15:09:54;2.17;;;2.17;;
7110;SDS011;3597;42.650;23.386;2022-07-01T15:12:26;2.15;;;2.15;;
7110;SDS011;3597;42.650;23.386;2022-07-01T15:14:51;1.95;;;1.95;;
7110;SDS011;3597;42.650;23.386;2022-07-01T15:17:17;2.30;;;2.30;;
7110;SDS011;3597;42.650;23.386;2022-07-01T15:19:42;2.25;;;2.25;;
7110;SDS011;3597;42.650;23.386;2022-07-01T15:22:08;2.30;;;2.30;;
7110;SDS011;3597;42.650;23.386;2022-07-01T15:24:33;2.10;;;2.10;;
7110;SDS011;3597;42.650;23.386;2022-07-01T15:26:59;2.40;;;2.20;;
7110;SDS011;3597;42.650;23.386;2022-07-01T15:29:25;2.30;;;2.30;;
7110;SDS011;3597;42.650;23.386;2022-07-01T15:31:50;2.60;;;2.60;;